sensor_id;sensor_type;location;lat;lon;timestamp;pressure;altitude;pressure_sealevel;temperature;humidity
46303;BME280;32029;51.358;5.628;2023-09-12T00:01:06;101063.47;;;21.84;100.00
46303;BME280;32029;51.358;5.628;2023-09-12T00:03:34;101036.53;;;21.73;100.00
46303;BME280;32029;51.358;5.628;2023-09-12T00:06:01;101053.69;;;21.82;100.00
46303;BME280;32029;51.358;5.628;2023-09-12T00:08:28;101057.31;;;21.82;100.00
46303;BME280;32029;51.358;5.628;2023-09-12T00:11:06;101034.31;;;21.75;100.00
46303;BME280;32029;51.358;5.628;2023-09-12T00:13:40;101029.91;;;21.79;100.00
46303;BME280;32029;51.358;5.628;2023-09-12T00:16:07;101013.53;;;21.66;100.00
46303;BME280;32029;51.358;5.628;2023-09-12T00:18:38;101031.59;;;21.80;100.00
46303;BME280;32029;51.358;5.628;2023-09-12T00:21:05;101028.56;;;21.82;100.00
46303;BME280;32029;51.358;5.628;2023-09-12T00:23:31;101041.41;;;21.83;100.00
46303;BME280;32029;51.358;5.628;2023-09-12T00:25:58;101046.72;;;21.84;100.00
46303;BME280;32029;51.358;5.628;2023-09-12T00:28:25;101040.91;;;21.86;100.00
46303;BME280;32029;51.358;5.628;2023-09-12T00:30:52;101042.31;;;21.88;100.00
46303;BME280;32029;51.358;5.628;2023-09-12T00:33:19;101036.72;;;21.88;100.00
46303;BME280;32029;51.358;5.628;2023-09-12T00:35:46;101037.31;;;21.90;100.00
46303;BME280;32029;51.358;5.628;2023-09-12T00:38:12;101039.00;;;21.91;100.00
46303;BME280;32029;51.358;5.628;2023-09-12T00:40:39;101040.72;;;21.92;100.00
46303;BME280;32029;51.358;5.628;2023-09-12T00:43:06;101035.13;;;21.92;100.00
46303;BME280;32029;51.358;5.628;2023-09-12T00:45:32;101024.53;;;21.94;100.00
46303;BME280;32029;51.358;5.628;2023-09-12T00:48:01;101023.41;;;21.95;100.00
46303;BME280;32029;51.358;5.628;2023-09-12T00:50:30;101018.94;;;21.94;100.00
46303;BME280;32029;51.358;5.628;2023-09-12T00:52:58;101008.88;;;21.93;100.00
46303;BME280;32029;51.358;5.628;2023-09-12T00:55:26;101002.13;;;21.89;100.00
46303;BME280;32029;51.358;5.628;2023-09-12T00:57:53;101015.50;;;21.87;100.00
46303;BME280;32029;51.358;5.628;2023-09-12T01:00:20;101014.81;;;21.80;100.00
46303;BME280;32029;51.358;5.628;2023-09-12T01:02:47;101012.81;;;21.75;100.00
46303;BME280;32029;51.358;5.628;2023-09-12T01:05:14;101024.75;;;21.71;100.00
46303;BME280;32029;51.358;5.628;2023-09-12T01:07:42;101019.94;;;21.66;100.00
46303;BME280;32029;51.358;5.628;2023-09-12T01:10:10;101037.19;;;21.63;100.00
46303;BME280;32029;51.358;5.628;2023-09-12T01:12:36;101026.75;;;21.53;100.00
46303;BME280;32029;51.358;5.628;2023-09-12T01:15:04;101027.91;;;21.58;100.00
46303;BME280;32029;51.358;5.628;2023-09-12T01:17:41;101032.66;;;21.57;100.00
46303;BME280;32029;51.358;5.628;2023-09-12T01:20:13;101035.69;;;21.56;100.00
46303;BME280;32029;51.358;5.628;2023-09-12T01:22:54;101029.53;;;21.53;100.00
46303;BME280;32029;51.358;5.628;2023-09-12T01:28:09;101049.06;;;21.53;100.00
46303;BME280;32029;51.358;5.628;2023-09-12T01:30:38;101051.88;;;21.53;100.00
46303;BME280;32029;51.358;5.628;2023-09-12T01:33:06;101040.69;;;21.53;100.00
46303;BME280;32029;51.358;5.628;2023-09-12T01:35:32;101040.69;;;21.53;100.00
46303;BME280;32029;51.358;5.628;2023-09-12T01:37:59;100990.09;;;21.16;100.00
46303;BME280;32029;51.358;5.628;2023-09-12T01:40:44;101045.16;;;21.55;100.00
46303;BME280;32029;51.358;5.628;2023-09-12T01:43:15;101042.31;;;21.49;100.00
46303;BME280;32029;51.358;5.628;2023-09-12T01:45:43;101052.38;;;21.50;100.00
46303;BME280;32029;51.358;5.628;2023-09-12T01:48:11;101036.03;;;21.42;100.00
46303;BME280;32029;51.358;5.628;2023-09-12T01:50:39;101035.22;;;21.42;100.00
46303;BME280;32029;51.358;5.628;2023-09-12T01:53:06;101034.34;;;21.41;100.00
46303;BME280;32029;51.358;5.628;2023-09-12T01:55:33;101033.50;;;21.41;100.00
46303;BME280;32029;51.358;5.628;2023-09-12T01:58:00;101030.47;;;21.42;100.00
46303;BME280;32029;51.358;5.628;2023-09-12T02:00:26;101020.97;;;21.43;100.00
46303;BME280;32029;51.358;5.628;2023-09-12T02:02:53;101007.53;;;21.40;100.00
46303;BME280;32029;51.358;5.628;2023-09-12T02:05:21;101016.00;;;21.45;100.00
46303;BME280;32029;51.358;5.628;2023-09-12T02:07:49;101009.53;;;21.45;100.00
46303;BME280;32029;51.358;5.628;2023-09-12T02:10:16;101019.88;;;21.44;100.00
46303;BME280;32029;51.358;5.628;2023-09-12T02:12:43;101018.19;;;21.43;100.00
46303;BME280;32029;51.358;5.628;2023-09-12T02:15:09;101023.69;;;21.38;100.00
46303;BME280;32029;51.358;5.628;2023-09-12T02:17:36;101024.66;;;21.32;100.00
46303;BME280;32029;51.358;5.628;2023-09-12T02:20:08;101010.97;;;21.31;100.00
46303;BME280;32029;51.358;5.628;2023-09-12T02:22:36;101016.22;;;21.27;100.00
46303;BME280;32029;51.358;5.628;2023-09-12T02:25:04;101024.34;;;21.28;100.00
46303;BME280;32029;51.358;5.628;2023-09-12T02:27:31;101025.69;;;21.26;100.00
46303;BME280;32029;51.358;5.628;2023-09-12T02:29:58;101023.16;;;21.24;100.00
46303;BME280;32029;51.358;5.628;2023-09-12T02:32:24;101028.16;;;21.22;100.00
46303;BME280;32029;51.358;5.628;2023-09-12T02:34:51;101033.97;;;21.21;100.00
46303;BME280;32029;51.358;5.628;2023-09-12T02:37:19;101037.25;;;21.18;100.00
46303;BME280;32029;51.358;5.628;2023-09-12T02:39:46;101043.38;;;21.15;100.00
46303;BME280;32029;51.358;5.628;2023-09-12T02:42:13;101037.69;;;21.10;100.00
46303;BME280;32029;51.358;5.628;2023-09-12T02:44:39;101033.47;;;21.07;100.00
46303;BME280;32029;51.358;5.628;2023-09-12T02:47:06;101035.91;;;21.03;100.00
46303;BME280;32029;51.358;5.628;2023-09-12T02:49:33;101031.31;;;20.97;100.00
46303;BME280;32029;51.358;5.628;2023-09-12T02:51:59;101025.75;;;20.97;100.00
46303;BME280;32029;51.358;5.628;2023-09-12T02:54:26;101030.13;;;20.93;100.00
46303;BME280;32029;51.358;5.628;2023-09-12T02:56:53;101027.84;;;20.90;100.00
46303;BME280;32029;51.358;5.628;2023-09-12T02:59:19;101029.22;;;20.88;100.00
46303;BME280;32029;51.358;5.628;2023-09-12T03:01:47;101030.56;;;20.85;100.00
46303;BME280;32029;51.358;5.628;2023-09-12T03:04:14;101021.06;;;20.86;100.00
46303;BME280;32029;51.358;5.628;2023-09-12T03:06:41;101021.91;;;20.87;100.00
46303;BME280;32029;51.358;5.628;2023-09-12T03:09:08;101022.78;;;20.87;100.00
46303;BME280;32029;51.358;5.628;2023-09-12T03:11:34;101016.34;;;20.87;100.00
46303;BME280;32029;51.358;5.628;2023-09-12T03:14:01;101009.69;;;20.88;100.00
46303;BME280;32029;51.358;5.628;2023-09-12T03:16:28;101017.22;;;20.87;100.00
46303;BME280;32029;51.358;5.628;2023-09-12T03:18:55;101007.13;;;20.86;100.00
46303;BME280;32029;51.358;5.628;2023-09-12T03:21:22;101009.34;;;20.84;100.00
46303;BME280;32029;51.358;5.628;2023-09-12T03:23:49;100999.28;;;20.83;100.00
46303;BME280;32029;51.358;5.628;2023-09-12T03:26:15;100995.06;;;20.80;100.00
46303;BME280;32029;51.358;5.628;2023-09-12T03:28:42;100984.88;;;20.74;100.00
46303;BME280;32029;51.358;5.628;2023-09-12T03:31:11;100997.00;;;20.80;100.00
46303;BME280;32029;51.358;5.628;2023-09-12T03:33:39;100989.03;;;20.72;100.00
46303;BME280;32029;51.358;5.628;2023-09-12T03:36:07;100991.44;;;20.80;100.00
46303;BME280;32029;51.358;5.628;2023-09-12T03:38:35;100989.47;;;20.80;100.00
46303;BME280;32029;51.358;5.628;2023-09-12T03:41:02;100976.19;;;20.71;100.00
46303;BME280;32029;51.358;5.628;2023-09-12T03:43:29;101005.72;;;20.84;100.00
46303;BME280;32029;51.358;5.628;2023-09-12T03:45:56;101003.16;;;20.82;100.00
46303;BME280;32029;51.358;5.628;2023-09-12T03:48:23;100998.69;;;20.81;100.00
46303;BME280;32029;51.358;5.628;2023-09-12T03:50:50;101005.72;;;20.84;100.00
46303;BME280;32029;51.358;5.628;2023-09-12T03:53:17;100994.56;;;20.84;100.00
46303;BME280;32029;51.358;5.628;2023-09-12T03:55:43;100981.88;;;20.76;100.00
46303;BME280;32029;51.358;5.628;2023-09-12T03:58:10;100988.72;;;20.85;100.00
46303;BME280;32029;51.358;5.628;2023-09-12T04:00:37;100994.28;;;20.85;100.00
46303;BME280;32029;51.358;5.628;2023-09-12T04:03:04;100996.25;;;20.85;100.00
46303;BME280;32029;51.358;5.628;2023-09-12T04:05:31;100989.81;;;20.84;100.00
46303;BME280;32029;51.358;5.628;2023-09-12T04:07:57;100991.84;;;20.89;100.00
46303;BME280;32029;51.358;5.628;2023-09-12T04:10:24;100993.31;;;20.91;100.00
46303;BME280;32029;51.358;5.628;2023-09-12T04:12:51;100994.16;;;20.92;100.00
46303;BME280;32029;51.358;5.628;2023-09-12T04:15:17;100990.50;;;20.91;100.00
46303;BME280;32029;51.358;5.628;2023-09-12T04:17:44;100987.72;;;20.91;100.00
46303;BME280;32029;51.358;5.628;2023-09-12T04:20:11;100996.66;;;20.93;100.00
46303;BME280;32029;51.358;5.628;2023-09-12T04:22:42;101002.00;;;20.95;100.00
46303;BME280;32029;51.358;5.628;2023-09-12T04:25:08;101002.50;;;20.92;100.00
46303;BME280;32029;51.358;5.628;2023-09-12T04:27:35;101008.94;;;20.92;100.00
46303;BME280;32029;51.358;5.628;2023-09-12T04:30:02;101000.91;;;20.96;100.00
46303;BME280;32029;51.358;5.628;2023-09-12T04:32:30;101007.91;;;20.98;100.00
46303;BME280;32029;51.358;5.628;2023-09-12T04:34:56;101018.81;;;21.00;100.00
46303;BME280;32029;51.358;5.628;2023-09-12T04:37:23;101024.75;;;21.03;100.00
46303;BME280;32029;51.358;5.628;2023-09-12T04:39:50;101018.91;;;21.05;100.00
46303;BME280;32029;51.358;5.628;2023-09-12T04:42:16;101007.81;;;20.93;100.00
46303;BME280;32029;51.358;5.628;2023-09-12T04:44:43;101020.28;;;21.02;100.00
46303;BME280;32029;51.358;5.628;2023-09-12T04:47:10;101033.00;;;20.98;100.00
46303;BME280;32029;51.358;5.628;2023-09-12T04:49:37;101028.38;;;20.87;100.00
46303;BME280;32029;51.358;5.628;2023-09-12T04:52:04;101041.28;;;20.93;100.00
46303;BME280;32029;51.358;5.628;2023-09-12T04:54:30;101040.78;;;20.96;100.00
46303;BME280;32029;51.358;5.628;2023-09-12T04:56:57;101033.88;;;20.99;100.00
46303;BME280;32029;51.358;5.628;2023-09-12T04:59:24;101028.03;;;21.00;100.00
46303;BME280;32029;51.358;5.628;2023-09-12T05:01:50;101026.69;;;21.03;100.00
46303;BME280;32029;51.358;5.628;2023-09-12T05:04:17;101016.38;;;21.03;100.00
46303;BME280;32029;51.358;5.628;2023-09-12T05:06:44;101018.06;;;21.04;100.00
46303;BME280;32029;51.358;5.628;2023-09-12T05:09:11;101018.91;;;21.05;100.00
46303;BME280;32029;51.358;5.628;2023-09-12T05:11:38;101005.81;;;21.05;100.00
46303;BME280;32029;51.358;5.628;2023-09-12T05:14:04;101000.50;;;21.04;100.00
46303;BME280;32029;51.358;5.628;2023-09-12T05:16:31;100979.34;;;20.91;100.00
46303;BME280;32029;51.358;5.628;2023-09-12T05:18:58;100994.06;;;21.03;100.00
46303;BME280;32029;51.358;5.628;2023-09-12T05:21:25;100991.28;;;21.03;100.00
46303;BME280;32029;51.358;5.628;2023-09-12T05:23:51;100993.22;;;21.03;100.00
46303;BME280;32029;51.358;5.628;2023-09-12T05:26:18;100991.00;;;21.05;100.00
46303;BME280;32029;51.358;5.628;2023-09-12T05:28:45;100999.66;;;21.03;100.00
46303;BME280;32029;51.358;5.628;2023-09-12T05:31:11;100998.53;;;21.04;100.00
46303;BME280;32029;51.358;5.628;2023-09-12T05:33:38;100957.47;;;20.83;100.00
46303;BME280;32029;51.358;5.628;2023-09-12T05:36:05;100997.44;;;21.05;100.00
46303;BME280;32029;51.358;5.628;2023-09-12T05:38:32;100987.13;;;21.06;100.00
46303;BME280;32029;51.358;5.628;2023-09-12T05:40:58;100989.66;;;21.08;100.00
46303;BME280;32029;51.358;5.628;2023-09-12T05:43:25;100991.63;;;21.07;100.00
46303;BME280;32029;51.358;5.628;2023-09-12T05:45:52;101004.47;;;21.08;100.00
46303;BME280;32029;51.358;5.628;2023-09-12T05:48:18;101002.50;;;21.09;100.00
46303;BME280;32029;51.358;5.628;2023-09-12T05:50:45;101013.66;;;21.09;100.00
46303;BME280;32029;51.358;5.628;2023-09-12T05:53:12;101016.19;;;21.10;100.00
46303;BME280;32029;51.358;5.628;2023-09-12T05:55:39;101026.50;;;21.10;100.00
46303;BME280;32029;51.358;5.628;2023-09-12T05:58:06;101031.88;;;21.11;100.00
46303;BME280;32029;51.358;5.628;2023-09-12T06:00:33;101016.97;;;21.05;100.00
46303;BME280;32029;51.358;5.628;2023-09-12T06:02:59;101025.19;;;21.12;100.00
46303;BME280;32029;51.358;5.628;2023-09-12T06:05:26;101002.16;;;21.05;100.00
46303;BME280;32029;51.358;5.628;2023-09-12T06:07:53;101018.50;;;21.13;100.00
46303;BME280;32029;51.358;5.628;2023-09-12T06:10:20;101019.88;;;21.11;100.00
46303;BME280;32029;51.358;5.628;2023-09-12T06:12:46;101013.75;;;21.14;100.00
46303;BME280;32029;51.358;5.628;2023-09-12T06:15:13;101010.97;;;21.14;100.00
46303;BME280;32029;51.358;5.628;2023-09-12T06:17:40;100998.72;;;21.15;100.00
46303;BME280;32029;51.358;5.628;2023-09-12T06:20:07;100978.16;;;21.04;100.00
46303;BME280;32029;51.358;5.628;2023-09-12T06:22:34;100996.50;;;21.17;100.00
46303;BME280;32029;51.358;5.628;2023-09-12T06:25:01;100998.72;;;21.15;100.00
46303;BME280;32029;51.358;5.628;2023-09-12T06:27:27;101015.53;;;21.20;100.00
46303;BME280;32029;51.358;5.628;2023-09-12T06:29:54;101013.31;;;21.22;100.00
46303;BME280;32029;51.358;5.628;2023-09-12T06:32:21;101019.78;;;21.22;100.00
46303;BME280;32029;51.358;5.628;2023-09-12T06:34:47;101016.88;;;21.17;100.00
46303;BME280;32029;51.358;5.628;2023-09-12T06:37:14;101031.19;;;21.21;100.00
46303;BME280;32029;51.358;5.628;2023-09-12T06:39:41;101009.19;;;21.08;100.00
46303;BME280;32029;51.358;5.628;2023-09-12T06:42:08;101042.34;;;21.21;100.00
46303;BME280;32029;51.358;5.628;2023-09-12T06:44:35;101052.94;;;21.19;100.00
46303;BME280;32029;51.358;5.628;2023-09-12T06:47:04;101045.47;;;21.08;100.00
46303;BME280;32029;51.358;5.628;2023-09-12T06:49:31;101060.53;;;21.07;100.00
46303;BME280;32029;51.358;5.628;2023-09-12T06:51:58;101056.28;;;21.04;100.00
46303;BME280;32029;51.358;5.628;2023-09-12T06:54:25;101051.28;;;21.06;100.00
46303;BME280;32029;51.358;5.628;2023-09-12T06:56:52;101038.94;;;21.02;100.00
46303;BME280;32029;51.358;5.628;2023-09-12T06:59:18;101041.41;;;21.15;100.00
46303;BME280;32029;51.358;5.628;2023-09-12T07:01:45;101047.41;;;21.24;100.00
46303;BME280;32029;51.358;5.628;2023-09-12T07:04:12;101046.75;;;21.34;100.00
46303;BME280;32029;51.358;5.628;2023-09-12T07:06:39;101045.50;;;21.41;100.00
46303;BME280;32029;51.358;5.628;2023-09-12T07:09:05;101019.97;;;21.33;100.00
46303;BME280;32029;51.358;5.628;2023-09-12T07:11:33;101046.19;;;21.48;100.00
46303;BME280;32029;51.358;5.628;2023-09-12T07:14:00;101038.13;;;21.52;100.00
46303;BME280;32029;51.358;5.628;2023-09-12T07:16:26;101007.63;;;21.45;100.00
46303;BME280;32029;51.358;5.628;2023-09-12T07:18:53;101043.13;;;21.67;100.00
46303;BME280;32029;51.358;5.628;2023-09-12T07:21:20;101040.16;;;21.73;100.00
46303;BME280;32029;51.358;5.628;2023-09-12T07:23:48;101046.41;;;21.81;100.00
46303;BME280;32029;51.358;5.628;2023-09-12T07:26:14;101028.22;;;21.78;100.00
46303;BME280;32029;51.358;5.628;2023-09-12T07:28:41;101039.09;;;21.96;100.00
46303;BME280;32029;51.358;5.628;2023-09-12T07:31:08;101025.66;;;21.93;100.00
46303;BME280;32029;51.358;5.628;2023-09-12T07:33:35;101044.03;;;22.11;100.00
46303;BME280;32029;51.358;5.628;2023-09-12T07:36:02;101043.88;;;22.18;100.00
46303;BME280;32029;51.358;5.628;2023-09-12T07:38:29;101052.00;;;22.19;100.00
46303;BME280;32029;51.358;5.628;2023-09-12T07:40:57;101037.19;;;22.19;100.00
46303;BME280;32029;51.358;5.628;2023-09-12T07:43:24;101033.72;;;22.12;100.00
46303;BME280;32029;51.358;5.628;2023-09-12T07:45:58;101048.91;;;22.16;100.00
46303;BME280;32029;51.358;5.628;2023-09-12T07:48:25;101053.38;;;22.17;100.00
46303;BME280;32029;51.358;5.628;2023-09-12T07:50:51;101053.94;;;22.19;100.00
46303;BME280;32029;51.358;5.628;2023-09-12T07:53:18;101037.97;;;22.14;100.00
46303;BME280;32029;51.358;5.628;2023-09-12T07:55:45;101047.28;;;22.20;100.00
46303;BME280;32029;51.358;5.628;2023-09-12T07:58:14;101041.34;;;22.16;100.00
46303;BME280;32029;51.358;5.628;2023-09-12T08:00:41;101037.97;;;22.14;100.00
46303;BME280;32029;51.358;5.628;2023-09-12T08:03:08;101043.03;;;22.17;100.00
46303;BME280;32029;51.358;5.628;2023-09-12T08:05:35;101042.84;;;22.24;100.00
46303;BME280;32029;51.358;5.628;2023-09-12T08:08:02;101040.06;;;22.24;100.00
46303;BME280;32029;51.358;5.628;2023-09-12T08:10:29;101040.13;;;22.29;100.00
46303;BME280;32029;51.358;5.628;2023-09-12T08:12:56;101049.66;;;22.33;100.00
46303;BME280;32029;51.358;5.628;2023-09-12T08:15:23;101065.41;;;22.39;100.00
46303;BME280;32029;51.358;5.628;2023-09-12T08:17:49;101068.22;;;22.39;100.00
46303;BME280;32029;51.358;5.628;2023-09-12T08:20:19;101080.47;;;22.38;100.00
46303;BME280;32029;51.358;5.628;2023-09-12T08:22:47;101074.09;;;22.43;100.00
46303;BME280;32029;51.358;5.628;2023-09-12T08:25:15;101076.00;;;22.37;100.00
46303;BME280;32029;51.358;5.628;2023-09-12T08:27:41;101092.25;;;22.40;100.00
46303;BME280;32029;51.358;5.628;2023-09-12T08:30:12;101088.41;;;22.46;100.00
46303;BME280;32029;51.358;5.628;2023-09-12T08:32:40;101092.06;;;22.47;100.00
46303;BME280;32029;51.358;5.628;2023-09-12T08:35:11;101096.59;;;22.53;100.00
46303;BME280;32029;51.358;5.628;2023-09-12T08:37:40;101096.94;;;22.57;100.00
46303;BME280;32029;51.358;5.628;2023-09-12T08:40:08;101102.00;;;22.60;100.00
46303;BME280;32029;51.358;5.628;2023-09-12T08:42:40;101109.88;;;22.63;100.00
46303;BME280;32029;51.358;5.628;2023-09-12T08:45:18;101123.00;;;22.62;100.00
46303;BME280;32029;51.358;5.628;2023-09-12T08:47:49;101121.91;;;22.63;100.00
46303;BME280;32029;51.358;5.628;2023-09-12T08:50:16;101113.19;;;22.60;100.00
46303;BME280;32029;51.358;5.628;2023-09-12T08:52:44;101115.47;;;22.63;100.00
46303;BME280;32029;51.358;5.628;2023-09-12T08:55:11;101114.03;;;22.60;100.00
46303;BME280;32029;51.358;5.628;2023-09-12T08:57:41;101095.25;;;22.56;100.00
46303;BME280;32029;51.358;5.628;2023-09-12T09:00:09;101095.91;;;22.63;100.00
46303;BME280;32029;51.358;5.628;2023-09-12T09:02:40;101104.41;;;22.73;100.00
46303;BME280;32029;51.358;5.628;2023-09-12T09:05:08;101091.91;;;22.81;100.00
46303;BME280;32029;51.358;5.628;2023-09-12T09:07:42;101094.69;;;22.81;100.00
46303;BME280;32029;51.358;5.628;2023-09-12T09:10:16;101094.44;;;22.82;100.00
46303;BME280;32029;51.358;5.628;2023-09-12T09:12:45;101093.13;;;22.90;100.00
46303;BME280;32029;51.358;5.628;2023-09-12T09:15:23;101093.97;;;22.90;100.00
46303;BME280;32029;51.358;5.628;2023-09-12T09:17:51;101099.13;;;22.98;100.00
46303;BME280;32029;51.358;5.628;2023-09-12T09:20:26;101100.94;;;23.10;100.00
46303;BME280;32029;51.358;5.628;2023-09-12T09:23:01;101092.31;;;23.16;100.00
46303;BME280;32029;51.358;5.628;2023-09-12T09:25:27;101093.78;;;23.24;100.00
46303;BME280;32029;51.358;5.628;2023-09-12T09:27:54;101086.00;;;23.31;100.00
46303;BME280;32029;51.358;5.628;2023-09-12T09:30:43;101086.59;;;23.33;100.00
46303;BME280;32029;51.358;5.628;2023-09-12T09:33:12;101060.78;;;23.26;100.00
46303;BME280;32029;51.358;5.628;2023-09-12T09:35:43;101083.88;;;23.43;100.00
46303;BME280;32029;51.358;5.628;2023-09-12T09:38:11;101088.94;;;23.46;100.00
46303;BME280;32029;51.358;5.628;2023-09-12T09:40:44;101081.16;;;23.48;100.00
46303;BME280;32029;51.358;5.628;2023-09-12T09:43:11;101084.59;;;23.61;100.00
46303;BME280;32029;51.358;5.628;2023-09-12T09:45:45;101093.09;;;23.71;100.00
46303;BME280;32029;51.358;5.628;2023-09-12T09:48:24;101095.16;;;23.81;100.00
46303;BME280;32029;51.358;5.628;2023-09-12T09:51:02;101098.28;;;23.89;100.00
46303;BME280;32029;51.358;5.628;2023-09-12T09:53:30;101066.59;;;23.84;100.00
46303;BME280;32029;51.358;5.628;2023-09-12T09:56:10;101087.19;;;24.05;100.00
46303;BME280;32029;51.358;5.628;2023-09-12T09:58:54;101083.84;;;24.08;100.00
46303;BME280;32029;51.358;5.628;2023-09-12T10:01:28;101083.03;;;24.12;100.00
46303;BME280;32029;51.358;5.628;2023-09-12T10:04:00;101090.00;;;24.10;100.00
46303;BME280;32029;51.358;5.628;2023-09-12T10:06:28;101089.75;;;24.11;100.00
46303;BME280;32029;51.358;5.628;2023-09-12T10:08:56;101085.00;;;24.17;100.00
46303;BME280;32029;51.358;5.628;2023-09-12T10:11:28;101074.38;;;24.24;100.00
46303;BME280;32029;51.358;5.628;2023-09-12T10:14:00;101076.13;;;24.30;100.00
46303;BME280;32029;51.358;5.628;2023-09-12T10:16:57;101063.78;;;24.36;100.00
46303;BME280;32029;51.358;5.628;2023-09-12T10:19:26;101081.22;;;24.38;100.00
46303;BME280;32029;51.358;5.628;2023-09-12T10:22:12;101085.19;;;24.42;100.00
46303;BME280;32029;51.358;5.628;2023-09-12T10:24:43;101076.78;;;24.48;100.00
46303;BME280;32029;51.358;5.628;2023-09-12T10:27:12;101058.22;;;24.41;100.00
46303;BME280;32029;51.358;5.628;2023-09-12T10:29:39;101067.31;;;24.69;100.00
46303;BME280;32029;51.358;5.628;2023-09-12T10:32:08;101074.63;;;24.80;100.00
46303;BME280;32029;51.358;5.628;2023-09-12T10:34:36;101065.41;;;24.95;100.00
46303;BME280;32029;51.358;5.628;2023-09-12T10:37:04;101070.75;;;25.07;100.00
46303;BME280;32029;51.358;5.628;2023-09-12T10:39:32;101076.16;;;25.13;100.00
46303;BME280;32029;51.358;5.628;2023-09-12T10:42:04;101068.84;;;25.23;100.00
46303;BME280;32029;51.358;5.628;2023-09-12T10:44:30;101078.13;;;25.33;100.00
46303;BME280;32029;51.358;5.628;2023-09-12T10:46:58;101067.19;;;25.37;100.00
46303;BME280;32029;51.358;5.628;2023-09-12T10:49:25;101064.38;;;25.52;100.00
46303;BME280;32029;51.358;5.628;2023-09-12T10:51:51;101068.56;;;25.65;100.00
46303;BME280;32029;51.358;5.628;2023-09-12T10:54:36;101063.25;;;25.69;100.00
46303;BME280;32029;51.358;5.628;2023-09-12T10:57:09;101066.88;;;25.74;100.00
46303;BME280;32029;51.358;5.628;2023-09-12T11:02:33;101059.00;;;25.76;100.00
46303;BME280;32029;51.358;5.628;2023-09-12T11:05:06;101059.00;;;25.76;100.00
46303;BME280;32029;51.358;5.628;2023-09-12T11:12:43;101061.25;;;25.74;100.00
46303;BME280;32029;51.358;5.628;2023-09-12T11:15:10;101062.38;;;25.73;100.00
46303;BME280;32029;51.358;5.628;2023-09-12T11:17:38;101052.00;;;25.69;100.00
46303;BME280;32029;51.358;5.628;2023-09-12T11:20:05;101059.03;;;25.71;100.00
46303;BME280;32029;51.358;5.628;2023-09-12T11:22:43;101050.59;;;25.66;100.00
46303;BME280;32029;51.358;5.628;2023-09-12T11:25:24;101073.09;;;25.81;100.00
46303;BME280;32029;51.358;5.628;2023-09-12T11:30:24;101069.16;;;25.87;100.00
46303;BME280;32029;51.358;5.628;2023-09-12T11:32:58;101057.91;;;25.87;100.00
46303;BME280;32029;51.358;5.628;2023-09-12T11:35:27;101073.06;;;25.97;100.00
46303;BME280;32029;51.358;5.628;2023-09-12T11:37:56;101052.84;;;25.95;100.00
46303;BME280;32029;51.358;5.628;2023-09-12T11:40:26;101059.56;;;26.04;100.00
46303;BME280;32029;51.358;5.628;2023-09-12T11:42:52;101064.59;;;26.07;100.00
46303;BME280;32029;51.358;5.628;2023-09-12T11:45:20;101069.94;;;26.13;100.00
46303;BME280;32029;51.358;5.628;2023-09-12T11:47:47;101071.06;;;26.18;100.00
46303;BME280;32029;51.358;5.628;2023-09-12T11:53:05;101070.13;;;26.32;100.00
46303;BME280;32029;51.358;5.628;2023-09-12T11:55:34;101075.16;;;26.40;100.00
46303;BME280;32029;51.358;5.628;2023-09-12T11:58:01;101061.66;;;26.53;100.00
46303;BME280;32029;51.358;5.628;2023-09-12T12:00:29;101063.28;;;26.64;100.00
46303;BME280;32029;51.358;5.628;2023-09-12T12:02:56;101068.28;;;26.77;100.00
46303;BME280;32029;51.358;5.628;2023-09-12T12:05:24;101067.38;;;26.92;100.00
46303;BME280;32029;51.358;5.628;2023-09-12T12:07:50;101068.69;;;27.05;100.00
46303;BME280;32029;51.358;5.628;2023-09-12T12:10:17;101062.41;;;27.18;100.00
46303;BME280;32029;51.358;5.628;2023-09-12T12:12:45;101064.97;;;27.20;95.47
46303;BME280;32029;51.358;5.628;2023-09-12T12:15:14;101064.72;;;27.11;93.59
46303;BME280;32029;51.358;5.628;2023-09-12T12:17:41;101059.66;;;27.08;100.00
46303;BME280;32029;51.358;5.628;2023-09-12T12:20:10;101054.56;;;27.10;98.96
46303;BME280;32029;51.358;5.628;2023-09-12T12:22:38;101036.31;;;27.02;93.56
46303;BME280;32029;51.358;5.628;2023-09-12T12:25:11;101032.69;;;26.97;95.60
46303;BME280;32029;51.358;5.628;2023-09-12T12:27:39;101057.09;;;27.17;98.84
46303;BME280;32029;51.358;5.628;2023-09-12T12:30:11;101043.78;;;27.22;91.65
46303;BME280;32029;51.358;5.628;2023-09-12T12:32:46;101037.31;;;27.22;91.09
46303;BME280;32029;51.358;5.628;2023-09-12T12:35:18;101035.59;;;27.26;98.42
46303;BME280;32029;51.358;5.628;2023-09-12T12:37:45;101020.03;;;27.33;100.00
46303;BME280;32029;51.358;5.628;2023-09-12T12:40:13;101027.22;;;27.50;100.00
46303;BME280;32029;51.358;5.628;2023-09-12T12:42:40;101024.91;;;27.57;98.07
46303;BME280;32029;51.358;5.628;2023-09-12T12:45:15;101023.41;;;27.65;100.00
46303;BME280;32029;51.358;5.628;2023-09-12T12:47:43;101019.69;;;27.74;100.00
46303;BME280;32029;51.358;5.628;2023-09-12T12:50:17;101016.75;;;27.84;100.00
46303;BME280;32029;51.358;5.628;2023-09-12T12:52:48;101018.09;;;27.92;100.00
46303;BME280;32029;51.358;5.628;2023-09-12T12:55:16;101017.75;;;27.99;100.00
46303;BME280;32029;51.358;5.628;2023-09-12T12:57:48;101017.16;;;28.02;99.78
46303;BME280;32029;51.358;5.628;2023-09-12T13:00:16;101011.19;;;28.03;99.25
46303;BME280;32029;51.358;5.628;2023-09-12T13:02:44;101014.81;;;28.09;100.00